Palominas, Arizona
Current Conditions -  °F | °C
As of 3:55 AM on Friday 24 Oct 2014 (Local Time) from KFHU Reporting Station
Clear Clear  
Wind Chill: 57°   Ceiling: Unl
Heat Index: 57°   Visibility: 10mi
Dew Point: 43°   Wind: 0mph
Humidity: 59%   Direction: NA
Pressure: 30.21"   Gusts: NA
Location:  31.4041°N, 110.306°W
Report Text: KFHU 241055Z 00000KT 10SM CLR 14/06 A3021 RMK SLP180
Loading
Personal Weather Stations






























Interactive Weather Map
Tropical Storm Tracking
New forecast layout! Learn more

10-Day Weather Forecast

Advertisements
Track Severe Weather on mobile